Time;durP1;ratioP1;P1;durP2;ratioP2;P2;SDS_P1;SDS_P2;PMS_P1;PMS_P2;Temp;Humidity;BMP_temperature;BMP_pressure;BME280_temperature;BME280_humidity;BME280_pressure;Samples;Min_cycle;Max_cycle;Signal;HPM_P1;HPM_P2
2022/06/27 00:01:12;;;;;;;1.73;0.40;;;;;;;27.91;44.57;100584.38;4987667;28;20110;-69
2022/06/27 00:03:38;;;;;;;0.73;0.28;;;;;;;27.92;45.15;100577.94;4987377;28;20438;-69
2022/06/27 00:06:03;;;;;;;0.60;0.20;;;;;;;27.92;44.63;100577.94;4985048;28;20030;-69
2022/06/27 00:08:29;;;;;;;1.73;0.20;;;;;;;27.93;45.03;100583.06;4987737;28;20022;-69
2022/06/27 00:10:54;;;;;;;1.58;0.20;;;;;;;27.93;44.76;100576.88;4989228;28;20030;-69
2022/06/27 00:13:20;;;;;;;1.17;0.20;;;;;;;27.94;45.18;100570.47;4986722;28;20026;-69
2022/06/27 00:15:45;;;;;;;0.68;0.15;;;;;;;27.93;45.02;100575.03;4987623;28;20022;-69
2022/06/27 00:18:11;;;;;;;0.50;0.20;;;;;;;27.94;45.12;100573.16;4986877;28;20113;-70
2022/06/27 00:20:36;;;;;;;2.78;0.40;;;;;;;27.94;45.00;100573.94;4987445;28;20042;-69
2022/06/27 00:23:02;;;;;;;1.80;0.28;;;;;;;27.93;44.38;100575.03;4989098;28;20053;-69
2022/06/27 00:25:27;;;;;;;1.75;0.20;;;;;;;27.93;44.57;100572.34;4986774;28;20042;-70
2022/06/27 00:27:52;;;;;;;3.75;0.20;;;;;;;27.92;44.32;100568.03;4987922;28;20070;-70
2022/06/27 00:30:20;;;;;;;1.52;0.20;;;;;;;27.90;44.46;100559.47;4988925;28;20054;-70
2022/06/27 00:32:45;;;;;;;2.33;0.30;;;;;;;27.90;44.30;100559.47;4983732;28;20092;-70
2022/06/27 00:35:11;;;;;;;2.03;0.40;;;;;;;27.90;44.52;100561.34;4987939;28;20026;-70
2022/06/27 00:37:36;;;;;;;0.95;0.20;;;;;;;27.89;44.48;100557.84;4988054;28;20042;-69
2022/06/27 00:40:03;;;;;;;1.15;0.20;;;;;;;27.88;44.52;100553.59;4986648;28;20092;-69
2022/06/27 00:42:29;;;;;;;3.47;0.20;;;;;;;27.85;44.62;100546.06;4984109;28;20122;-69
2022/06/27 00:44:54;;;;;;;3.60;0.40;;;;;;;27.78;44.74;100550.81;4988882;28;20109;-70
2022/06/27 00:47:20;;;;;;;5.30;0.20;;;;;;;27.76;44.93;100550.28;4985956;28;20022;-69
2022/06/27 00:49:46;;;;;;;0.95;0.20;;;;;;;27.75;44.55;100546.78;4981070;28;20528;-69
2022/06/27 00:52:13;;;;;;;2.25;0.40;;;;;;;27.76;44.53;100542.25;4987153;28;20026;-69
2022/06/27 00:54:41;;;;;;;5.85;0.20;;;;;;;27.76;45.06;100542.25;4985624;28;20030;-69
2022/06/27 00:57:07;;;;;;;3.70;0.40;;;;;;;27.72;44.67;100543.81;4988044;28;20022;-69
2022/06/27 00:59:35;;;;;;;1.48;0.40;;;;;;;27.69;45.07;100547.00;4986684;28;20041;-69
2022/06/27 01:02:01;;;;;;;6.72;0.52;;;;;;;27.62;44.98;100543.72;4985388;28;20037;-69
2022/06/27 01:04:28;;;;;;;2.85;0.40;;;;;;;27.60;45.45;100551.19;4985307;28;20030;-70
2022/06/27 01:06:55;;;;;;;1.48;0.43;;;;;;;27.61;45.19;100548.28;4989095;28;20026;-69
2022/06/27 01:09:21;;;;;;;1.45;0.28;;;;;;;27.64;45.07;100542.41;4987494;28;20061;-70
2022/06/27 01:11:48;;;;;;;2.42;0.30;;;;;;;27.64;45.33;100539.75;4988902;28;20092;-70
2022/06/27 01:14:14;;;;;;;1.88;0.38;;;;;;;27.64;45.02;100538.94;4987524;28;20033;-71
2022/06/27 01:16:39;;;;;;;1.50;0.20;;;;;;;27.65;45.41;100537.88;4987291;28;20034;-69
2022/06/27 01:19:09;;;;;;;2.03;0.30;;;;;;;27.66;45.32;100537.63;4985762;28;20030;-70
2022/06/27 01:21:40;;;;;;;0.80;0.20;;;;;;;27.69;45.46;100533.63;4988788;28;20022;-69
2022/06/27 01:24:06;;;;;;;1.02;0.30;;;;;;;27.67;45.32;100533.06;4985435;28;20034;-69
2022/06/27 01:26:32;;;;;;;2.33;0.30;;;;;;;27.68;45.25;100534.69;4988416;28;20371;-69
2022/06/27 01:28:58;;;;;;;2.03;0.52;;;;;;;27.67;45.01;100525.84;4986948;28;20116;-70
2022/06/27 01:31:24;;;;;;;5.07;0.40;;;;;;;27.66;44.58;100520.75;4985818;28;20031;-69
2022/06/27 01:33:49;;;;;;;1.13;0.38;;;;;;;27.64;45.07;100512.16;4987574;28;20494;-70
2022/06/27 01:38:59;;;;;;;3.22;0.22;;;;;;;27.60;44.55;100521.75;4987283;28;20394;-70
2022/06/27 01:41:25;;;;;;;1.52;0.40;;;;;;;27.60;44.29;100524.44;4989714;28;20027;-70
2022/06/27 01:43:51;;;;;;;2.67;0.30;;;;;;;27.56;43.87;100528.66;4988505;28;20022;-70
2022/06/27 01:46:16;;;;;;;1.88;0.20;;;;;;;27.49;43.74;100525.38;4992153;28;20093;-69
2022/06/27 01:48:42;;;;;;;0.70;0.35;;;;;;;27.51;43.80;100539.31;4990730;28;20494;-70
2022/06/27 01:51:08;;;;;;;1.60;0.20;;;;;;;27.51;43.26;100533.97;4991933;28;20026;-70
2022/06/27 01:53:35;;;;;;;1.88;0.30;;;;;;;27.49;43.50;100536.88;4989095;28;20396;-69
2022/06/27 01:56:01;;;;;;;2.97;0.30;;;;;;;27.50;43.28;100537.69;4991791;28;20141;-70
2022/06/27 01:58:27;;;;;;;3.08;0.30;;;;;;;27.50;43.33;100538.50;4987270;28;20398;-69
2022/06/27 02:00:52;;;;;;;2.00;0.38;;;;;;;27.46;43.63;100529.38;4991985;28;20661;-69
2022/06/27 02:03:18;;;;;;;1.45;0.20;;;;;;;27.44;43.77;100534.16;4988781;28;20038;-69
2022/06/27 02:05:45;;;;;;;4.53;0.20;;;;;;;27.42;43.90;100526.41;4991310;28;20065;-70
2022/06/27 02:08:11;;;;;;;2.42;0.45;;;;;;;27.46;44.04;100536.59;4986314;28;20027;-70
2022/06/27 02:10:37;;;;;;;1.30;0.20;;;;;;;27.46;43.99;100534.72;4991177;28;20513;-70
2022/06/27 02:13:03;;;;;;;1.83;0.32;;;;;;;27.48;43.93;100537.16;4990293;28;20034;-69
2022/06/27 02:15:30;;;;;;;0.68;0.20;;;;;;;27.49;44.28;100536.09;4990092;28;20052;-70
2022/06/27 02:17:55;;;;;;;0.65;0.20;;;;;;;27.52;44.06;100543.59;4989864;28;20076;-69
2022/06/27 02:20:21;;;;;;;1.08;0.20;;;;;;;27.53;44.12;100548.69;4991023;28;20030;-69
2022/06/27 02:22:46;;;;;;;1.58;0.20;;;;;;;27.52;43.42;100536.38;4989991;28;20033;-69
2022/06/27 02:25:12;;;;;;;0.98;0.20;;;;;;;27.53;43.30;100547.91;4989553;28;20030;-69
2022/06/27 02:27:38;;;;;;;1.20;0.20;;;;;;;27.55;43.49;100545.78;4989272;28;20026;-69
2022/06/27 02:30:05;;;;;;;0.70;0.20;;;;;;;27.55;43.54;100548.44;4988557;28;20117;-69
2022/06/27 02:32:30;;;;;;;0.98;0.30;;;;;;;27.54;43.47;100547.63;4989979;28;20034;-70
2022/06/27 02:34:57;;;;;;;0.77;0.22;;;;;;;27.55;43.19;100545.78;4991183;28;20108;-69
2022/06/27 02:37:24;;;;;;;7.50;0.52;;;;;;;27.48;43.69;100551.31;4989664;28;20053;-69
2022/06/27 02:39:51;;;;;;;1.48;0.30;;;;;;;27.41;43.48;100548.84;4987815;28;20041;-69
2022/06/27 02:42:20;;;;;;;1.10;0.10;;;;;;;27.40;44.04;100552.63;4990303;28;20033;-68
2022/06/27 02:44:48;;;;;;;1.30;0.20;;;;;;;27.40;43.57;100549.94;4987392;28;20026;-69
2022/06/27 02:47:13;;;;;;;1.20;0.20;;;;;;;27.39;43.82;100552.88;4987956;28;20096;-69
2022/06/27 02:49:39;;;;;;;3.78;0.35;;;;;;;27.36;43.77;100556.88;4990335;28;20026;-69
2022/06/27 02:52:25;;;;;;;1.55;0.38;;;;;;;27.32;43.73;100561.09;4989493;28;20018;-70
2022/06/27 02:55:01;;;;;;;2.25;0.30;;;;;;;27.33;44.09;100567.25;4981338;28;20058;-69
2022/06/27 02:57:36;;;;;;;1.98;0.30;;;;;;;27.34;44.08;100571.56;4990086;28;20065;-69
2022/06/27 03:00:03;;;;;;;2.95;0.25;;;;;;;27.34;44.08;100572.34;4977782;28;20602;-69
2022/06/27 03:02:30;;;;;;;3.85;0.40;;;;;;;27.34;44.29;100569.69;4988862;28;20027;-70
2022/06/27 03:04:56;;;;;;;2.10;0.30;;;;;;;27.29;44.67;100574.16;4989584;28;20034;-69
2022/06/27 03:07:22;;;;;;;1.67;0.25;;;;;;;27.22;44.72;100571.69;4990251;28;20607;-69
2022/06/27 03:09:49;;;;;;;1.63;0.30;;;;;;;27.23;44.64;100559.94;4988931;28;20061;-69
2022/06/27 03:12:15;;;;;;;0.75;0.20;;;;;;;27.22;44.92;100555.66;4989325;28;20479;-69
2022/06/27 03:14:41;;;;;;;2.88;0.40;;;;;;;27.23;44.90;100559.13;4987485;28;20068;-69
2022/06/27 03:17:06;;;;;;;0.50;0.22;;;;;;;27.25;44.84;100554.34;4990533;28;20029;-69
2022/06/27 03:19:32;;;;;;;1.38;0.30;;;;;;;27.27;45.14;100545.00;4988702;28;20069;-70
2022/06/27 03:21:57;;;;;;;0.82;0.30;;;;;;;27.30;44.89;100543.69;4988258;28;20117;-68
2022/06/27 03:24:23;;;;;;;1.77;0.20;;;;;;;27.31;44.74;100546.13;4987143;28;20048;-69
2022/06/27 03:26:48;;;;;;;2.03;0.30;;;;;;;27.33;44.93;100544.00;4989257;28;20038;-69
2022/06/27 03:29:14;;;;;;;4.95;0.30;;;;;;;27.34;44.46;100540.25;4989199;28;20522;-69
2022/06/27 03:31:41;;;;;;;2.00;0.30;;;;;;;27.35;44.62;100536.53;4986541;28;20045;-70
2022/06/27 03:34:06;;;;;;;1.13;0.30;;;;;;;27.35;44.28;100538.38;4988377;28;20026;-69
2022/06/27 03:36:32;;;;;;;1.33;0.30;;;;;;;27.32;43.96;100539.69;4988791;28;20454;-69
2022/06/27 03:38:57;;;;;;;1.52;0.20;;;;;;;27.29;43.75;100532.19;4987648;28;20492;-69
2022/06/27 03:41:23;;;;;;;2.25;0.20;;;;;;;27.28;44.03;100540.47;4986940;28;20050;-70
2022/06/27 03:43:49;;;;;;;2.15;0.20;;;;;;;27.30;43.84;100533.00;4987328;28;20030;-69
2022/06/27 03:46:14;;;;;;;3.13;0.30;;;;;;;27.30;43.68;100538.34;4986143;28;20052;-69
2022/06/27 03:51:23;;;;;;;2.05;0.22;;;;;;;27.27;43.95;100530.81;4987006;28;20080;-69
2022/06/27 03:53:49;;;;;;;2.03;0.20;;;;;;;27.26;43.80;100527.34;4987185;28;20085;-69
2022/06/27 03:56:14;;;;;;;2.08;0.28;;;;;;;27.27;43.68;100520.13;4990085;28;20037;-69
2022/06/27 03:58:40;;;;;;;1.17;0.20;;;;;;;27.26;43.75;100516.63;4986692;28;20561;-69
2022/06/27 04:01:05;;;;;;;1.05;0.30;;;;;;;27.26;43.83;100516.63;4987820;28;20536;-69
2022/06/27 04:03:30;;;;;;;1.10;0.20;;;;;;;27.26;43.79;100510.47;4987086;28;20499;-69
2022/06/27 04:05:56;;;;;;;4.80;0.30;;;;;;;27.26;44.17;100513.97;4987967;28;20059;-68
2022/06/27 04:08:21;;;;;;;0.82;0.30;;;;;;;27.26;43.87;100511.28;4988169;28;20057;-68
2022/06/27 04:10:47;;;;;;;1.25;0.20;;;;;;;27.27;43.96;100512.09;4987215;28;20100;-69
2022/06/27 04:13:12;;;;;;;1.00;0.30;;;;;;;27.26;43.82;100511.28;4989170;28;20034;-69
2022/06/27 04:15:39;;;;;;;1.63;0.30;;;;;;;27.27;44.00;100515.56;4988318;28;20422;-69
2022/06/27 04:18:05;;;;;;;2.75;0.20;;;;;;;27.27;43.88;100512.09;4987729;28;20035;-69
2022/06/27 04:20:30;;;;;;;0.88;0.20;;;;;;;27.27;43.55;100509.41;4988578;28;20158;-69
2022/06/27 04:22:56;;;;;;;1.30;0.20;;;;;;;27.26;43.61;100511.28;4988670;28;20065;-68
2022/06/27 04:25:21;;;;;;;3.83;0.20;;;;;;;27.27;43.69;100506.75;4987622;28;20031;-69
2022/06/27 04:27:47;;;;;;;3.72;0.20;;;;;;;27.26;43.70;100505.94;4987263;28;20030;-69
2022/06/27 04:30:16;;;;;;;1.45;0.20;;;;;;;27.27;43.75;100499.53;4987830;28;20038;-68
2022/06/27 04:32:45;;;;;;;1.50;0.20;;;;;;;27.27;43.70;100496.84;4986753;28;20068;-69
2022/06/27 04:35:12;;;;;;;0.80;0.20;;;;;;;27.30;43.75;100490.19;4986135;28;20058;-69
2022/06/27 04:37:41;;;;;;;1.65;0.30;;;;;;;27.30;43.86;100482.97;4984343;28;20042;-69
2022/06/27 04:40:10;;;;;;;3.42;0.20;;;;;;;27.31;43.84;100489.13;4977811;28;20534;-69
2022/06/27 04:42:35;;;;;;;1.63;0.20;;;;;;;27.31;43.84;100481.09;4988358;28;20113;-69
2022/06/27 04:45:02;;;;;;;2.13;0.30;;;;;;;27.31;43.74;100489.94;4987183;28;20117;-69
2022/06/27 04:47:27;;;;;;;2.55;0.25;;;;;;;27.31;43.75;100484.59;4984054;28;20034;-69
2022/06/27 04:49:52;;;;;;;1.52;0.20;;;;;;;27.31;43.71;100503.31;4985336;28;20018;-69
2022/06/27 04:52:18;;;;;;;1.35;0.25;;;;;;;27.30;44.02;100506.25;4988651;28;20108;-69
2022/06/27 04:54:43;;;;;;;2.50;0.40;;;;;;;27.29;44.04;100499.28;4987762;28;20562;-69
2022/06/27 04:57:09;;;;;;;1.38;0.30;;;;;;;27.25;44.32;100506.19;4986747;28;20494;-69
2022/06/27 04:59:35;;;;;;;1.48;0.40;;;;;;;27.19;45.21;100510.69;4985028;28;20036;-69
2022/06/27 05:02:00;;;;;;;3.95;0.43;;;;;;;27.13;45.67;100509.00;4985379;28;20031;-69
2022/06/27 05:04:28;;;;;;;2.20;0.30;;;;;;;27.12;46.06;100510.06;4986716;28;20045;-68
2022/06/27 05:06:55;;;;;;;3.70;0.40;;;;;;;27.10;46.66;100513.00;4988448;28;20514;-69
2022/06/27 05:09:21;;;;;;;2.25;0.35;;;;;;;27.07;46.71;100512.69;4988322;28;20038;-69
2022/06/27 05:11:48;;;;;;;2.38;0.40;;;;;;;27.04;46.83;100514.00;4989446;28;20022;-69
2022/06/27 05:14:14;;;;;;;2.45;0.52;;;;;;;27.04;46.64;100513.19;4991624;28;20033;-69
2022/06/27 05:16:39;;;;;;;3.80;0.50;;;;;;;27.07;46.61;100523.38;4992113;28;20030;-69
2022/06/27 05:19:05;;;;;;;2.03;0.40;;;;;;;27.09;46.75;100518.59;4991550;28;20026;-69
2022/06/27 05:21:30;;;;;;;2.00;0.45;;;;;;;27.09;46.45;100521.28;4992430;28;20497;-69
2022/06/27 05:23:56;;;;;;;2.90;0.40;;;;;;;27.08;46.31;100525.00;4992583;28;20088;-69
2022/06/27 05:26:22;;;;;;;2.83;0.50;;;;;;;27.07;46.28;100528.75;4990744;28;20041;-69
2022/06/27 05:28:48;;;;;;;4.00;0.50;;;;;;;27.03;46.31;100533.78;4992003;28;20061;-69
2022/06/27 05:31:13;;;;;;;4.40;0.45;;;;;;;26.99;46.31;100540.69;4991820;28;20046;-69
2022/06/27 05:33:39;;;;;;;4.75;0.50;;;;;;;26.95;46.83;100542.22;4991258;28;20029;-69
2022/06/27 05:36:06;;;;;;;5.45;0.50;;;;;;;26.96;46.98;100537.69;4990627;28;20057;-69
2022/06/27 05:38:31;;;;;;;1.48;0.43;;;;;;;27.00;47.15;100546.84;4990193;28;20112;-69
2022/06/27 05:40:58;;;;;;;2.97;0.35;;;;;;;27.02;47.42;100547.41;4991561;28;20041;-69
2022/06/27 05:43:23;;;;;;;5.32;0.40;;;;;;;27.05;47.60;100541.56;4991625;28;20031;-69
2022/06/27 05:45:49;;;;;;;2.42;0.38;;;;;;;27.05;47.63;100554.91;4990888;28;20026;-69
2022/06/27 05:48:15;;;;;;;5.88;0.65;;;;;;;27.07;47.73;100560.81;4991853;28;20566;-68
2022/06/27 05:50:40;;;;;;;3.13;0.40;;;;;;;27.07;47.82;100558.97;4991153;28;20027;-69
2022/06/27 05:53:06;;;;;;;3.45;0.52;;;;;;;27.09;47.93;100553.34;4991625;28;20041;-69
2022/06/27 05:55:32;;;;;;;2.58;0.50;;;;;;;27.11;47.94;100559.25;4989418;28;20030;-69
2022/06/27 05:58:00;;;;;;;4.38;0.50;;;;;;;27.11;47.87;100553.91;4990382;28;20061;-69
2022/06/27 06:00:27;;;;;;;5.47;0.60;;;;;;;27.11;47.73;100551.25;4990885;28;20088;-69
2022/06/27 06:02:54;;;;;;;5.03;0.73;;;;;;;27.12;47.93;100552.84;4990099;28;20101;-69
2022/06/27 06:05:21;;;;;;;2.90;0.40;;;;;;;27.13;48.05;100549.13;4989092;28;20030;-69
2022/06/27 06:07:48;;;;;;;2.55;0.40;;;;;;;27.12;48.03;100552.84;4990032;28;20152;-70
2022/06/27 06:10:14;;;;;;;3.00;0.40;;;;;;;27.09;48.08;100548.81;4990096;28;20030;-69
2022/06/27 06:12:40;;;;;;;3.05;0.50;;;;;;;27.07;48.35;100550.13;4991260;28;20042;-69
2022/06/27 06:15:08;;;;;;;1.05;0.30;;;;;;;27.08;48.27;100557.09;4991216;28;20030;-69
2022/06/27 06:17:36;;;;;;;1.77;0.38;;;;;;;27.09;48.20;100558.72;4990274;28;20462;-69
2022/06/27 06:20:05;;;;;;;4.28;0.47;;;;;;;27.09;48.34;100564.06;4990416;28;20073;-69
2022/06/27 06:22:32;;;;;;;2.38;0.40;;;;;;;27.10;48.28;100565.66;4990688;28;20459;-69
2022/06/27 06:24:57;;;;;;;2.85;0.52;;;;;;;27.09;48.29;100569.41;4989396;28;20022;-69
2022/06/27 06:27:23;;;;;;;2.22;0.40;;;;;;;27.08;48.20;100567.78;4991086;28;20046;-69
2022/06/27 06:29:49;;;;;;;3.65;0.50;;;;;;;27.11;48.40;100572.63;4988928;28;20029;-69
2022/06/27 06:32:15;;;;;;;3.25;0.50;;;;;;;27.12;48.16;100574.25;4990178;28;20474;-69
2022/06/27 06:34:42;;;;;;;1.85;0.40;;;;;;;27.13;48.40;100583.88;4989732;28;20026;-69
2022/06/27 06:37:09;;;;;;;3.97;0.40;;;;;;;27.15;48.27;100581.78;4990425;28;20057;-69
2022/06/27 06:39:34;;;;;;;3.10;0.40;;;;;;;27.14;48.30;100588.19;4991255;28;20023;-69
2022/06/27 06:41:59;;;;;;;3.47;0.65;;;;;;;27.09;48.45;100588.13;4989889;28;20364;-69
2022/06/27 06:44:25;;;;;;;3.17;0.30;;;;;;;27.02;48.32;100591.00;4990889;28;20029;-69
2022/06/27 06:46:52;;;;;;;4.07;0.40;;;;;;;27.03;48.62;100597.13;4990588;28;20027;-69
2022/06/27 06:49:18;;;;;;;3.60;0.50;;;;;;;27.04;48.67;100596.09;4989345;28;20030;-69
2022/06/27 06:51:44;;;;;;;5.45;0.57;;;;;;;27.07;48.76;100599.06;4990368;28;20026;-69
2022/06/27 06:54:17;;;;;;;4.07;0.45;;;;;;;27.08;49.04;100594.53;4990497;28;20105;-69
2022/06/27 06:56:45;;;;;;;3.42;0.30;;;;;;;27.04;48.77;100601.44;4990582;28;20026;-69
2022/06/27 06:59:10;;;;;;;5.00;0.45;;;;;;;27.02;49.24;100596.34;4989107;28;20121;-69
2022/06/27 07:01:37;;;;;;;2.88;0.40;;;;;;;27.02;49.00;100596.34;4990203;28;20113;-69
2022/06/27 07:04:03;;;;;;;4.82;0.38;;;;;;;27.03;48.61;100597.13;4989241;28;20030;-69
2022/06/27 07:06:29;;;;;;;3.85;0.50;;;;;;;27.03;49.10;100603.28;4989147;28;20039;-69
2022/06/27 07:08:57;;;;;;;4.05;0.40;;;;;;;27.07;49.26;100600.94;4990326;28;20036;-70
2022/06/27 07:11:28;;;;;;;3.58;0.32;;;;;;;27.10;49.12;100597.75;4988155;28;20045;-70
2022/06/27 07:13:55;;;;;;;2.40;0.50;;;;;;;27.14;49.45;100604.22;4990049;28;20117;-69
2022/06/27 07:16:21;;;;;;;8.80;0.73;;;;;;;27.15;49.37;100599.69;4988586;28;20033;-69
2022/06/27 07:18:48;;;;;;;3.13;0.40;;;;;;;27.15;49.16;100605.84;4986436;28;20045;-69
2022/06/27 07:21:18;;;;;;;2.45;0.40;;;;;;;27.18;49.29;100599.19;4989849;28;20030;-69
2022/06/27 07:23:48;;;;;;;2.10;0.55;;;;;;;27.19;48.74;100598.13;4989868;28;20035;-69
2022/06/27 07:26:15;;;;;;;2.47;0.40;;;;;;;27.22;49.02;100600.31;4988117;28;20029;-70
2022/06/27 07:28:40;;;;;;;1.15;0.30;;;;;;;27.25;48.84;100599.81;4987236;28;20109;-70
2022/06/27 07:31:11;;;;;;;2.40;0.40;;;;;;;27.27;48.72;100592.34;4989225;28;20036;-71
2022/06/27 07:33:44;;;;;;;5.88;0.63;;;;;;;27.30;48.73;100586.50;4989560;28;20395;-70
2022/06/27 07:36:14;;;;;;;3.08;0.40;;;;;;;27.30;48.55;100595.31;4988700;28;20047;-69
2022/06/27 07:38:42;;;;;;;4.28;0.40;;;;;;;27.33;48.37;100588.66;4989664;28;20033;-69
2022/06/27 07:41:09;;;;;;;2.85;0.50;;;;;;;27.35;48.55;100590.03;4988347;28;20030;-71
2022/06/27 07:43:35;;;;;;;3.80;0.40;;;;;;;27.37;48.43;100576.41;4989895;28;20034;-70
2022/06/27 07:46:05;;;;;;;5.28;0.60;;;;;;;27.37;48.16;100571.84;4988520;28;20034;-70
2022/06/27 07:48:31;;;;;;;2.08;0.32;;;;;;;27.38;47.96;100561.97;4989302;28;20385;-70
2022/06/27 07:50:57;;;;;;;3.40;0.30;;;;;;;27.39;47.87;100571.59;4988558;28;20033;-70
2022/06/27 07:53:24;;;;;;;3.92;0.47;;;;;;;27.41;47.67;100564.13;4989381;28;20487;-69
2022/06/27 07:55:52;;;;;;;2.33;0.38;;;;;;;27.42;47.63;100563.84;4989525;28;20388;-69
2022/06/27 07:58:19;;;;;;;2.35;0.20;;;;;;;27.46;47.35;100555.31;4989151;28;20031;-69
2022/06/27 08:00:48;;;;;;;4.65;0.57;;;;;;;27.48;47.17;100563.91;4988110;28;20045;-70
2022/06/27 08:05:59;;;;;;;6.20;0.60;;;;;;;27.54;47.00;100562.88;4989295;28;20041;-70
2022/06/27 08:08:26;;;;;;;4.47;0.30;;;;;;;27.56;46.47;100563.44;4986021;28;20111;-69
2022/06/27 08:10:52;;;;;;;1.98;0.22;;;;;;;27.59;45.58;100565.66;4985723;28;20032;-70
2022/06/27 08:13:18;;;;;;;3.72;0.40;;;;;;;27.60;45.80;100564.59;4983321;28;20035;-69
2022/06/27 08:15:45;;;;;;;2.70;0.30;;;;;;;27.60;45.63;100565.38;4984569;28;20034;-70
2022/06/27 08:18:11;;;;;;;1.77;0.30;;;;;;;27.64;45.31;100560.34;4982415;28;20084;-70
2022/06/27 08:20:37;;;;;;;3.50;0.20;;;;;;;27.68;44.76;100558.78;4982501;28;20030;-69
2022/06/27 08:23:03;;;;;;;2.55;0.30;;;;;;;27.70;44.86;100554.78;4984124;28;20034;-70
2022/06/27 08:25:29;;;;;;;2.58;0.30;;;;;;;27.75;44.92;100562.03;4984461;28;20560;-70
2022/06/27 08:27:55;;;;;;;2.58;0.32;;;;;;;27.73;44.70;100553.47;4983911;28;20026;-69
2022/06/27 08:30:25;;;;;;;2.53;0.30;;;;;;;27.72;44.54;100554.53;4981483;28;20037;-70
2022/06/27 08:32:58;;;;;;;4.40;0.32;;;;;;;27.78;43.52;100558.84;4982400;28;20486;-68
2022/06/27 08:35:23;;;;;;;1.60;0.30;;;;;;;27.86;42.28;100553.03;4986325;28;20030;-69
2022/06/27 08:37:54;;;;;;;4.18;0.30;;;;;;;27.88;41.63;100550.91;4985164;28;20413;-69
2022/06/27 08:40:21;;;;;;;5.00;0.30;;;;;;;27.86;40.93;100550.34;4984695;28;20045;-70
2022/06/27 08:42:47;;;;;;;2.60;0.20;;;;;;;27.83;41.22;100548.19;4985554;28;20128;-73
2022/06/27 08:45:19;;;;;;;3.15;0.22;;;;;;;27.86;40.81;100554.91;4984766;28;20075;-68
2022/06/27 08:47:46;;;;;;;6.53;0.30;;;;;;;27.86;41.21;100561.06;4989629;28;20062;-70
2022/06/27 08:50:13;;;;;;;4.75;0.30;;;;;;;27.92;40.72;100551.97;4992492;28;20668;-69
2022/06/27 08:52:39;;;;;;;2.65;0.30;;;;;;;28.03;40.74;100551.00;4990832;28;20043;-69
2022/06/27 08:55:09;;;;;;;3.17;0.45;;;;;;;28.13;39.91;100549.44;4991580;28;20038;-68
2022/06/27 08:57:41;;;;;;;3.03;0.40;;;;;;;28.19;38.93;100541.19;4993224;28;20054;-67
2022/06/27 09:00:09;;;;;;;4.15;0.47;;;;;;;28.23;39.19;100538.84;4992035;28;20058;-70
2022/06/27 09:02:45;;;;;;;4.00;0.30;;;;;;;28.26;38.76;100536.44;4991810;28;20041;-68
2022/06/27 09:05:22;;;;;;;4.00;0.40;;;;;;;28.31;38.21;100539.16;4991475;28;20182;-68
2022/06/27 09:07:50;;;;;;;4.47;0.28;;;;;;;28.38;37.78;100545.06;4986870;28;20088;-71
2022/06/27 09:10:36;;;;;;;4.95;0.32;;;;;;;28.41;37.28;100538.38;4991863;28;20048;-69
2022/06/27 09:13:06;;;;;;;3.15;0.50;;;;;;;28.45;37.32;100544.03;4987044;28;20034;-69
2022/06/27 09:15:40;;;;;;;3.80;0.63;;;;;;;28.45;37.05;100544.03;4993263;28;20038;-71
2022/06/27 09:18:08;;;;;;;7.68;0.82;;;;;;;28.45;37.36;100544.84;4993174;28;20038;-71
2022/06/27 09:20:52;;;;;;;7.88;0.30;;;;;;;28.49;37.18;100540.56;4989552;28;20454;-70
2022/06/27 09:23:40;;;;;;;5.35;1.05;;;;;;;28.54;37.33;100543.28;4988584;28;20121;-69
2022/06/27 09:26:20;;;;;;;4.70;0.50;;;;;;;28.47;37.85;100536.53;4985220;28;20038;-70
2022/06/27 09:28:59;;;;;;;7.68;0.30;;;;;;;28.53;38.07;100536.31;4991781;28;20433;-69
2022/06/27 09:31:30;;;;;;;3.90;0.40;;;;;;;28.58;38.34;100527.47;4991570;28;20553;-69
2022/06/27 09:34:10;;;;;;;4.07;0.30;;;;;;;28.49;38.60;100532.53;4991406;28;20042;-69
2022/06/27 09:36:48;;;;;;;4.72;0.30;;;;;;;28.53;37.97;100536.31;4991166;28;20078;-69
2022/06/27 09:39:24;;;;;;;6.30;0.40;;;;;;;28.58;37.66;100527.47;4984668;28;20117;-68
2022/06/27 09:42:03;;;;;;;5.57;0.40;;;;;;;28.51;37.81;100527.72;4991507;28;20037;-70
2022/06/27 09:44:34;;;;;;;6.45;0.40;;;;;;;28.60;38.34;100528.03;4992248;28;20569;-70
2022/06/27 09:47:11;;;;;;;3.80;0.30;;;;;;;28.65;37.77;100528.03;4990435;28;20085;-70
2022/06/27 09:49:39;;;;;;;6.60;0.75;;;;;;;28.69;38.19;100527.25;4992394;28;20057;-70
2022/06/27 09:52:08;;;;;;;6.60;0.65;;;;;;;28.78;38.06;100522.19;4991150;28;20025;-70
2022/06/27 09:54:35;;;;;;;5.43;0.55;;;;;;;28.79;37.68;100517.66;4991332;28;20513;-67
2022/06/27 09:57:02;;;;;;;5.32;0.70;;;;;;;28.80;37.24;100517.38;4990636;28;20393;-68
2022/06/27 09:59:28;;;;;;;7.95;0.47;;;;;;;28.72;38.28;100526.75;4987409;28;20113;-69
2022/06/27 10:01:57;;;;;;;4.55;0.30;;;;;;;28.64;38.29;100518.38;4988115;28;20038;-69
2022/06/27 10:04:24;;;;;;;4.43;0.45;;;;;;;28.65;38.65;100515.44;4986329;28;20038;-68
2022/06/27 10:06:51;;;;;;;7.70;0.60;;;;;;;28.67;38.41;100518.66;4987898;28;20030;-69
2022/06/27 10:09:20;;;;;;;7.80;0.80;;;;;;;28.65;38.65;100517.31;4989297;28;20032;-69
2022/06/27 10:11:47;;;;;;;10.57;0.55;;;;;;;28.67;38.75;100518.66;4989106;28;20402;-67
2022/06/27 10:14:21;;;;;;;6.13;0.60;;;;;;;28.77;38.44;100514.41;4990214;28;20026;-68
2022/06/27 10:16:55;;;;;;;4.70;0.60;;;;;;;28.77;38.20;100519.78;4989130;28;20030;-66
2022/06/27 10:19:23;;;;;;;4.25;0.50;;;;;;;28.79;37.85;100517.66;4991031;28;20030;-69
2022/06/27 10:21:51;;;;;;;8.93;0.55;;;;;;;28.82;38.43;100517.97;4990240;28;20501;-68
2022/06/27 10:24:21;;;;;;;3.75;0.73;;;;;;;28.77;38.83;100515.22;4990303;28;20030;-68
2022/06/27 10:26:48;;;;;;;8.38;0.82;;;;;;;28.71;38.48;100510.91;4987638;28;20030;-68
2022/06/27 10:29:33;;;;;;;5.55;0.50;;;;;;;28.71;38.80;100519.75;4985457;28;20033;-68
2022/06/27 10:32:04;;;;;;;4.70;0.57;;;;;;;28.84;38.70;100521.16;4986496;28;20042;-67
2022/06/27 10:34:38;;;;;;;8.23;0.85;;;;;;;28.95;38.27;100513.94;4986079;28;20077;-70
2022/06/27 10:37:24;;;;;;;8.95;0.50;;;;;;;28.98;38.22;100516.09;4982157;28;20118;-71
2022/06/27 10:40:11;;;;;;;7.88;0.85;;;;;;;29.01;38.42;100519.06;4986717;28;20487;-69
2022/06/27 10:42:50;;;;;;;6.03;0.50;;;;;;;29.10;38.20;100516.66;4989683;28;20038;-69
2022/06/27 10:45:22;;;;;;;9.63;0.73;;;;;;;29.11;38.53;100518.28;4988841;28;20042;-68
2022/06/27 10:47:56;;;;;;;5.43;0.50;;;;;;;29.18;38.34;100518.81;4988891;28;20109;-69
2022/06/27 10:50:24;;;;;;;6.18;0.73;;;;;;;29.17;38.79;100503.81;4988691;28;20197;-68
2022/06/27 10:52:51;;;;;;;4.03;0.45;;;;;;;29.23;39.08;100508.09;4990387;28;20022;-70
2022/06/27 10:55:25;;;;;;;4.45;0.52;;;;;;;29.37;38.62;100503.81;4990606;28;20047;-70
2022/06/27 10:57:52;;;;;;;3.75;0.43;;;;;;;29.39;39.75;100503.53;4990834;28;20026;-68
2022/06/27 11:01:12;;;;;;;10.57;1.23;;;;;;;29.68;46.75;100499.28;4990927;28;20399;-70
2022/06/27 11:03:39;;;;;;;5.22;0.70;;;;;;;29.75;45.79;100499.00;4947999;29;20075;-70
2022/06/27 11:06:06;;;;;;;6.07;0.73;;;;;;;29.84;46.37;100486.59;4949033;29;20043;-71
2022/06/27 11:08:36;;;;;;;7.15;0.43;;;;;;;29.96;48.90;100487.13;4948350;29;20047;-70
2022/06/27 11:11:03;;;;;;;11.18;0.75;;;;;;;30.08;45.82;100486.88;4948955;28;20118;-69
2022/06/27 11:13:49;;;;;;;10.20;0.90;;;;;;;30.01;41.91;100484.47;4946615;29;20046;-69
2022/06/27 11:16:18;;;;;;;6.80;0.73;;;;;;;29.89;41.74;100483.91;4948642;29;20166;-69
2022/06/27 11:18:52;;;;;;;7.97;0.88;;;;;;;29.75;40.91;100480.22;4948838;29;20046;-70
2022/06/27 11:21:22;;;;;;;10.52;0.60;;;;;;;29.66;40.21;100481.81;4949072;29;20051;-70
2022/06/27 11:23:53;;;;;;;13.38;0.93;;;;;;;29.61;39.49;100481.81;4947803;29;20440;-70
2022/06/27 11:26:20;;;;;;;8.35;0.60;;;;;;;29.65;38.77;100483.69;4947656;29;20416;-68
2022/06/27 11:34:15;;;;;;;10.93;1.08;;;;;;;29.72;37.28;100480.75;4970485;28;20208;-69
2022/06/27 11:36:40;;;;;;;10.55;1.20;;;;;;;29.76;36.64;100472.97;4988979;28;20069;-70
2022/06/27 11:39:06;;;;;;;6.38;0.77;;;;;;;29.72;37.35;100472.69;4989700;28;20451;-70
2022/06/27 11:41:36;;;;;;;4.35;0.63;;;;;;;29.64;37.56;100475.91;4989699;28;20018;-69